Kollan Island, Australia
Current Conditions -  °F | °C
As of 6:00 AM on Sunday 26 Oct 2014 (Local Time) from YCIN Reporting Station
Clear Clear  
Wind Chill: 77°   Ceiling: Unl
Heat Index: 78°   Visibility: NA
Dew Point: 73°   Wind: 5mph
Humidity: 89%   Direction: 50°NE
Pressure: 29.91"   Gusts: NA
Location:  16.11°S, 123.69°E
Report Text: YCIN 252200Z AUTO 05004KT //// // NCD 25/23 Q1013
Loading
Personal Weather Stations






























Interactive Weather Map
Tropical Storm Tracking
New forecast layout! Learn more

10-Day Weather Forecast

Advertisements
Track Severe Weather on mobile